createdAt,value
2023-04-15T00:01:01.451Z,6.63
2023-04-15T00:03:29.878Z,9.37
2023-04-15T00:05:59.248Z,6.37
2023-04-15T00:08:25.896Z,8.37
2023-04-15T00:10:53.087Z,10.70
2023-04-15T00:13:20.258Z,5.97
2023-04-15T00:15:47.382Z,7.53
2023-04-15T00:18:14.325Z,10.50
2023-04-15T00:20:41.572Z,8.47
2023-04-15T00:23:08.569Z,7.17
2023-04-15T00:25:35.204Z,7.30
2023-04-15T00:28:02.673Z,7.60
2023-04-15T00:30:29.417Z,9.50
2023-04-15T00:32:56.050Z,10.33
2023-04-15T00:35:24.038Z,7.17
2023-04-15T00:37:51.360Z,9.07
2023-04-15T00:40:19.615Z,10.50
2023-04-15T00:42:46.309Z,7.97
2023-04-15T00:45:14.060Z,10.47
2023-04-15T00:47:43.017Z,9.77
2023-04-15T00:50:11.061Z,8.17
2023-04-15T00:52:39.227Z,9.20
2023-04-15T00:55:06.851Z,12.00
2023-04-15T00:57:33.750Z,7.83
2023-04-15T01:00:01.070Z,9.77
2023-04-15T01:02:28.023Z,16.07
2023-04-15T01:04:56.316Z,9.97
2023-04-15T01:07:23.107Z,17.93
2023-04-15T01:09:50.347Z,7.10
2023-04-15T01:12:17.282Z,10.00
2023-04-15T01:14:44.068Z,8.30
2023-04-15T01:17:10.744Z,10.50
2023-04-15T01:19:38.135Z,9.23
2023-04-15T01:22:05.539Z,11.50
2023-04-15T01:24:35.493Z,12.30
2023-04-15T01:27:02.385Z,9.47
2023-04-15T01:29:29.625Z,10.57
2023-04-15T01:31:56.919Z,8.67
2023-04-15T01:34:44.750Z,5.80
2023-04-15T01:37:29.864Z,8.73
2023-04-15T01:39:57.343Z,7.37
2023-04-15T01:42:24.259Z,6.30
2023-04-15T01:44:52.089Z,6.70
2023-04-15T01:47:20.012Z,10.13
2023-04-15T01:49:48.823Z,8.13
2023-04-15T01:52:16.660Z,8.40
2023-04-15T01:54:44.600Z,9.40
2023-04-15T01:57:13.283Z,7.33
2023-04-15T01:59:42.174Z,7.53
2023-04-15T02:02:10.590Z,8.43
2023-04-15T02:04:38.410Z,7.43
2023-04-15T02:07:07.084Z,9.23
2023-04-15T02:09:36.504Z,9.00
2023-04-15T02:12:04.488Z,7.77
2023-04-15T02:14:32.624Z,6.40
2023-04-15T02:17:07.092Z,6.83
2023-04-15T02:19:35.550Z,6.87
2023-04-15T02:22:06.882Z,12.83
2023-04-15T02:24:35.243Z,9.40
2023-04-15T02:27:04.201Z,9.80
2023-04-15T02:29:32.897Z,8.57
2023-04-15T02:32:02.050Z,9.43
2023-04-15T02:34:30.362Z,11.03
2023-04-15T02:36:59.013Z,7.27
2023-04-15T02:39:27.343Z,6.80
2023-04-15T02:41:55.441Z,5.03
2023-04-15T02:44:24.906Z,7.37
2023-04-15T02:46:56.656Z,9.27
2023-04-15T02:49:25.215Z,7.53
2023-04-15T02:51:52.961Z,6.70
2023-04-15T02:54:26.036Z,7.00
2023-04-15T02:56:55.329Z,8.77
2023-04-15T02:59:23.361Z,6.97
2023-04-15T03:01:51.560Z,9.53
2023-04-15T03:04:19.585Z,7.23
2023-04-15T03:06:47.731Z,9.23
2023-04-15T03:09:15.774Z,6.07
2023-04-15T03:11:44.480Z,7.20
2023-04-15T03:14:12.312Z,6.23
2023-04-15T03:16:43.763Z,8.73
2023-04-15T03:19:12.311Z,8.40
2023-04-15T03:21:43.097Z,9.27
2023-04-15T03:24:11.130Z,8.97
2023-04-15T03:26:39.551Z,9.70
2023-04-15T03:29:12.939Z,8.10
2023-04-15T03:31:41.751Z,9.33
2023-04-15T03:34:09.565Z,5.50
2023-04-15T03:36:37.704Z,7.00
2023-04-15T03:39:05.586Z,6.30
2023-04-15T03:41:33.481Z,8.60
2023-04-15T03:44:01.365Z,8.63
2023-04-15T03:46:29.237Z,8.20
2023-04-15T03:48:57.035Z,12.73
2023-04-15T03:51:24.820Z,6.50
2023-04-15T03:53:52.599Z,7.87
2023-04-15T03:56:20.506Z,6.40
2023-04-15T03:58:48.280Z,8.13
2023-04-15T04:01:16.521Z,9.27
2023-04-15T04:03:44.550Z,7.47
2023-04-15T04:06:12.731Z,6.93
2023-04-15T04:08:40.985Z,12.37
2023-04-15T04:11:08.794Z,9.73
2023-04-15T04:13:36.733Z,11.37
2023-04-15T04:16:04.965Z,7.80
2023-04-15T04:18:33.176Z,9.27
2023-04-15T04:21:01.101Z,6.47
2023-04-15T04:23:28.910Z,8.30
2023-04-15T04:25:56.791Z,11.43
2023-04-15T04:28:24.553Z,8.30
2023-04-15T04:30:52.565Z,8.87
2023-04-15T04:33:20.453Z,6.10
2023-04-15T04:35:48.248Z,10.00
2023-04-15T04:38:16.273Z,9.27
2023-04-15T04:40:44.167Z,8.40
2023-04-15T04:43:12.658Z,8.17
2023-04-15T04:45:41.864Z,7.53
2023-04-15T04:48:10.500Z,8.33
2023-04-15T04:50:38.379Z,6.97
2023-04-15T04:53:06.560Z,12.87
2023-04-15T04:55:36.890Z,8.27
2023-04-15T04:58:04.652Z,7.93
2023-04-15T05:00:32.506Z,8.27
2023-04-15T05:03:00.849Z,11.70
2023-04-15T05:05:28.752Z,9.13
2023-04-15T05:07:56.482Z,8.87
2023-04-15T05:10:24.258Z,9.30
2023-04-15T05:12:52.578Z,7.40
2023-04-15T05:15:20.461Z,8.90
2023-04-15T05:17:48.329Z,7.67
2023-04-15T05:20:16.192Z,10.00
2023-04-15T05:22:43.992Z,6.67
2023-04-15T05:25:11.953Z,10.57
2023-04-15T05:27:39.937Z,8.00
2023-04-15T05:30:08.805Z,5.23
2023-04-15T05:32:36.739Z,5.60
2023-04-15T05:35:04.908Z,5.83
2023-04-15T05:37:31.420Z,12.07
2023-04-15T05:39:59.264Z,7.30
2023-04-15T05:42:27.104Z,6.53
2023-04-15T05:44:54.892Z,6.03
2023-04-15T05:47:22.706Z,7.67
2023-04-15T05:49:50.511Z,7.73
2023-04-15T05:52:18.251Z,8.63
2023-04-15T05:54:46.534Z,10.37
2023-04-15T05:57:14.288Z,5.80
2023-04-15T05:59:42.577Z,8.63
2023-04-15T06:02:10.674Z,7.50
2023-04-15T06:04:39.424Z,5.73
2023-04-15T06:07:07.312Z,8.73
2023-04-15T06:09:35.252Z,13.43
2023-04-15T06:12:03.301Z,9.80
2023-04-15T06:14:31.345Z,7.40
2023-04-15T06:16:59.201Z,7.70
2023-04-15T06:19:26.991Z,10.23
2023-04-15T06:21:54.982Z,9.30
2023-04-15T06:24:22.788Z,6.40
2023-04-15T06:26:50.696Z,8.37
2023-04-15T06:29:18.560Z,8.00
2023-04-15T06:31:48.008Z,8.40
2023-04-15T06:34:15.859Z,10.70
2023-04-15T06:36:43.670Z,10.37
2023-04-15T06:39:11.447Z,7.03
2023-04-15T06:41:39.279Z,8.40
2023-04-15T06:44:07.197Z,11.00
2023-04-15T06:46:35.020Z,6.63
2023-04-15T06:49:03.877Z,7.07
2023-04-15T06:51:32.705Z,14.13
2023-04-15T06:54:00.466Z,8.57
2023-04-15T06:56:28.575Z,7.33
2023-04-15T06:58:57.153Z,8.40
2023-04-15T07:01:25.266Z,7.47
2023-04-15T07:03:53.219Z,9.00
2023-04-15T07:06:21.876Z,7.57
2023-04-15T07:08:49.752Z,7.60
2023-04-15T07:11:18.403Z,7.17
2023-04-15T07:13:46.472Z,7.10
2023-04-15T07:16:14.344Z,6.57
2023-04-15T07:18:42.304Z,8.23
2023-04-15T07:21:10.349Z,7.93
2023-04-15T07:23:38.148Z,8.53
2023-04-15T07:26:06.063Z,11.53
2023-04-15T07:28:33.894Z,14.03
2023-04-15T07:31:02.026Z,7.07
2023-04-15T07:33:29.844Z,8.63
2023-04-15T07:35:58.122Z,7.57
2023-04-15T07:38:26.299Z,10.47
2023-04-15T07:40:54.247Z,8.50
2023-04-15T07:43:22.064Z,12.07
2023-04-15T07:45:50.076Z,7.50
2023-04-15T07:48:17.985Z,8.90
2023-04-15T07:50:45.885Z,9.13
2023-04-15T07:53:13.844Z,7.73
2023-04-15T07:55:44.752Z,9.30
2023-04-15T07:58:12.974Z,9.23
2023-04-15T08:00:40.823Z,9.77
2023-04-15T08:03:08.850Z,9.50
2023-04-15T08:05:36.827Z,8.63
2023-04-15T08:08:04.920Z,10.53
2023-04-15T08:10:32.934Z,10.20
2023-04-15T08:13:00.973Z,8.93
2023-04-15T08:15:28.765Z,11.60
2023-04-15T08:17:56.652Z,8.37
2023-04-15T08:20:24.491Z,6.27
2023-04-15T08:22:52.665Z,7.70
2023-04-15T08:25:21.211Z,12.40
2023-04-15T08:27:49.146Z,9.83
2023-04-15T08:30:16.986Z,5.57
2023-04-15T08:32:48.102Z,8.07
2023-04-15T08:35:16.276Z,7.93
2023-04-15T08:37:46.439Z,7.77
2023-04-15T08:40:14.347Z,6.93
2023-04-15T08:42:46.713Z,7.60
2023-04-15T08:45:15.301Z,7.40
2023-04-15T08:47:44.647Z,8.13
2023-04-15T08:50:13.300Z,6.47
2023-04-15T08:52:41.347Z,5.40
2023-04-15T08:55:10.526Z,9.60
2023-04-15T08:57:39.897Z,6.93
2023-04-15T09:00:09.319Z,5.17
2023-04-15T09:02:37.642Z,5.70
2023-04-15T09:05:07.734Z,7.17
2023-04-15T09:07:36.926Z,5.13
2023-04-15T09:10:05.378Z,3.63
2023-04-15T09:12:36.861Z,7.40
2023-04-15T09:15:05.310Z,8.17
2023-04-15T09:17:34.488Z,5.90
2023-04-15T09:20:14.113Z,11.47
2023-04-15T09:22:43.598Z,6.60
2023-04-15T09:25:23.387Z,4.90
2023-04-15T09:27:54.419Z,5.60
2023-04-15T09:30:22.877Z,5.20
2023-04-15T09:32:51.287Z,6.50
2023-04-15T09:35:20.813Z,6.43
2023-04-15T09:37:52.930Z,6.67
2023-04-15T09:40:40.958Z,7.17
2023-04-15T09:43:12.692Z,5.97
2023-04-15T09:45:49.125Z,4.17
2023-04-15T09:48:20.847Z,4.47
2023-04-15T09:50:50.275Z,5.63
2023-04-15T09:53:20.512Z,4.13
2023-04-15T09:55:54.483Z,5.80
2023-04-15T09:58:27.978Z,6.43
2023-04-15T10:00:57.579Z,4.57
2023-04-15T10:03:29.177Z,6.70
2023-04-15T10:05:59.278Z,8.27
2023-04-15T10:08:29.205Z,9.30
2023-04-15T10:10:57.615Z,7.00
2023-04-15T10:13:28.532Z,5.40
2023-04-15T10:16:05.141Z,6.87
2023-04-15T10:18:38.011Z,4.90
2023-04-15T10:21:06.832Z,6.37
2023-04-15T10:23:35.013Z,7.27
2023-04-15T10:26:04.694Z,8.00
2023-04-15T10:28:32.495Z,8.37
2023-04-15T10:31:01.302Z,4.97
2023-04-15T10:33:29.963Z,7.80
2023-04-15T10:35:58.170Z,6.10
2023-04-15T10:38:33.697Z,6.20
2023-04-15T10:41:25.835Z,8.80
2023-04-15T10:44:11.757Z,5.50
2023-04-15T10:46:45.375Z,5.57
2023-04-15T10:49:15.530Z,6.50
2023-04-15T10:51:45.755Z,5.90
2023-04-15T10:54:14.677Z,7.87
2023-04-15T10:56:44.302Z,8.23
2023-04-15T10:59:12.135Z,4.50
2023-04-15T11:01:54.398Z,5.07
2023-04-15T11:04:59.993Z,7.63
2023-04-15T11:07:41.126Z,5.53
2023-04-15T11:10:18.056Z,5.13
2023-04-15T11:12:46.543Z,2.90
2023-04-15T11:15:33.657Z,5.07
2023-04-15T11:18:16.692Z,5.17
2023-04-15T11:20:56.583Z,5.07
2023-04-15T11:23:46.755Z,4.93
2023-04-15T11:26:15.352Z,6.03
2023-04-15T11:28:45.204Z,4.10
2023-04-15T11:31:18.069Z,5.73
2023-04-15T11:34:07.112Z,4.53
2023-04-15T11:36:35.337Z,5.10
2023-04-15T11:39:07.378Z,3.77
2023-04-15T11:41:36.000Z,4.63
2023-04-15T11:44:16.086Z,7.33
2023-04-15T11:46:45.509Z,6.00
2023-04-15T11:49:26.999Z,5.93
2023-04-15T11:51:53.652Z,6.90
2023-04-15T11:54:20.477Z,5.47
2023-04-15T11:56:54.515Z,5.23
2023-04-15T11:59:21.325Z,7.70
2023-04-15T12:01:48.067Z,7.47
2023-04-15T12:04:25.136Z,6.03
2023-04-15T12:06:52.683Z,4.10
2023-04-15T12:09:20.376Z,5.27
2023-04-15T12:11:52.938Z,6.63
2023-04-15T12:14:29.896Z,7.67
2023-04-15T12:16:58.681Z,4.43
2023-04-15T12:19:30.587Z,4.47
2023-04-15T12:22:00.892Z,5.73
2023-04-15T12:24:28.493Z,5.13
2023-04-15T12:26:58.009Z,5.83
2023-04-15T12:29:29.082Z,3.23
2023-04-15T12:31:58.159Z,3.43
2023-04-15T12:34:33.223Z,4.37
2023-04-15T12:37:01.813Z,6.10
2023-04-15T12:39:30.869Z,6.90
2023-04-15T12:41:59.342Z,2.40
2023-04-15T12:44:26.132Z,3.70
2023-04-15T12:46:53.423Z,1.63
2023-04-15T12:49:21.345Z,3.43
2023-04-15T12:51:49.394Z,5.00
2023-04-15T12:54:17.485Z,2.03
2023-04-15T12:56:49.050Z,2.13
2023-04-15T12:59:18.401Z,6.60
2023-04-15T13:01:47.219Z,1.63
2023-04-15T13:04:14.994Z,1.43
2023-04-15T13:06:43.063Z,3.10
2023-04-15T13:09:10.269Z,3.03
2023-04-15T13:11:37.167Z,2.33
2023-04-15T13:14:06.210Z,2.10
2023-04-15T13:16:34.245Z,3.40
2023-04-15T13:19:02.205Z,3.33
2023-04-15T13:21:29.320Z,1.80
2023-04-15T13:23:56.004Z,4.67
2023-04-15T13:26:22.630Z,2.87
2023-04-15T13:28:49.282Z,4.30
2023-04-15T13:31:16.048Z,3.03
2023-04-15T13:33:42.822Z,1.23
2023-04-15T13:36:09.519Z,2.00
2023-04-15T13:38:36.541Z,3.57
2023-04-15T13:41:03.830Z,4.40
2023-04-15T13:43:30.550Z,5.33
2023-04-15T13:45:57.319Z,1.73
2023-04-15T13:48:23.986Z,2.97
2023-04-15T13:50:50.888Z,2.37
2023-04-15T13:53:17.609Z,1.70
2023-04-15T13:55:44.322Z,8.70
2023-04-15T13:58:13.673Z,3.27
2023-04-15T14:00:40.715Z,2.63
2023-04-15T14:03:07.603Z,2.40
2023-04-15T14:05:34.492Z,2.73
2023-04-15T14:08:01.322Z,2.47
2023-04-15T14:10:28.078Z,3.53
2023-04-15T14:12:54.680Z,1.67
2023-04-15T14:15:21.372Z,1.87
2023-04-15T14:17:48.179Z,3.10
2023-04-15T14:20:16.960Z,2.60
2023-04-15T14:22:44.092Z,2.27
2023-04-15T14:25:15.150Z,1.90
2023-04-15T14:27:50.137Z,2.13
2023-04-15T14:30:17.809Z,2.13
2023-04-15T14:32:44.626Z,2.63
2023-04-15T14:35:11.314Z,1.73
2023-04-15T14:37:38.006Z,2.47
2023-04-15T14:40:05.174Z,5.43
2023-04-15T14:42:31.935Z,3.40
2023-04-15T14:44:58.754Z,2.27
2023-04-15T14:47:25.717Z,1.87
2023-04-15T14:49:52.494Z,4.73
2023-04-15T14:52:19.146Z,1.73
2023-04-15T14:54:45.787Z,1.60
2023-04-15T14:57:12.457Z,2.87
2023-04-15T14:59:39.087Z,2.13
2023-04-15T15:02:05.894Z,1.53
2023-04-15T15:04:33.405Z,1.90
2023-04-15T15:07:00.239Z,1.87
2023-04-15T15:09:27.095Z,1.93
2023-04-15T15:11:53.842Z,1.50
2023-04-15T15:14:20.547Z,1.90
2023-04-15T15:16:47.215Z,1.40
2023-04-15T15:19:14.393Z,1.50
2023-04-15T15:21:41.135Z,1.70
2023-04-15T15:24:07.787Z,1.97
2023-04-15T15:26:34.440Z,2.17
2023-04-15T15:29:01.260Z,2.27
2023-04-15T15:31:27.948Z,2.73
2023-04-15T15:33:54.687Z,2.03
2023-04-15T15:36:21.489Z,1.73
2023-04-15T15:38:48.239Z,2.97
2023-04-15T15:41:15.554Z,3.07
2023-04-15T15:43:42.309Z,2.13
2023-04-15T15:46:09.368Z,2.80
2023-04-15T15:48:36.273Z,2.07
2023-04-15T15:51:04.259Z,3.10
2023-04-15T15:53:31.065Z,2.50
2023-04-15T15:55:57.866Z,1.83
2023-04-15T15:58:24.532Z,1.77
2023-04-15T16:00:51.322Z,2.33
2023-04-15T16:03:18.369Z,3.17
2023-04-15T16:05:45.964Z,2.10
2023-04-15T16:08:12.626Z,2.70
2023-04-15T16:10:39.451Z,4.07
2023-04-15T16:13:06.246Z,2.93
2023-04-15T16:15:32.977Z,2.33
2023-04-15T16:17:59.941Z,2.43
2023-04-15T16:20:28.177Z,2.57
2023-04-15T16:22:57.215Z,2.10
2023-04-15T16:25:24.697Z,2.50
2023-04-15T16:28:03.161Z,2.27
2023-04-15T16:30:40.318Z,2.43
2023-04-15T16:33:08.123Z,2.17
2023-04-15T16:35:35.098Z,1.80
2023-04-15T16:38:02.142Z,2.40
2023-04-15T16:40:28.869Z,2.80
2023-04-15T16:42:55.768Z,2.73
2023-04-15T16:45:22.480Z,2.70
2023-04-15T16:47:49.188Z,2.30
2023-04-15T16:50:16.219Z,2.20
2023-04-15T16:52:42.898Z,3.30
2023-04-15T16:55:09.714Z,1.90
2023-04-15T16:58:01.220Z,2.03
2023-04-15T17:00:23.133Z,2.50
2023-04-15T17:02:50.060Z,2.90
2023-04-15T17:05:16.974Z,2.37
2023-04-15T17:07:43.701Z,5.50
2023-04-15T17:10:10.589Z,2.93
2023-04-15T17:12:37.269Z,4.37
2023-04-15T17:15:04.183Z,2.50
2023-04-15T17:17:34.328Z,3.27
2023-04-15T17:20:01.146Z,2.93
2023-04-15T17:22:34.246Z,2.83
2023-04-15T17:25:03.189Z,2.23
2023-04-15T17:27:33.692Z,2.60
2023-04-15T17:30:09.237Z,4.50
2023-04-15T17:32:56.362Z,2.80
2023-04-15T17:35:42.943Z,3.17
2023-04-15T17:38:09.552Z,4.40
2023-04-15T17:40:56.138Z,2.70
2023-04-15T17:43:42.952Z,2.33
2023-04-15T17:46:29.693Z,2.67
2023-04-15T17:49:16.451Z,3.90
2023-04-15T17:52:03.827Z,3.90
2023-04-15T17:54:50.324Z,2.47
2023-04-15T17:57:36.888Z,3.33
2023-04-15T18:00:23.556Z,2.93
2023-04-15T18:03:10.446Z,2.90
2023-04-15T18:05:57.097Z,2.63
2023-04-15T18:08:43.776Z,4.10
2023-04-15T18:11:33.105Z,3.53
2023-04-15T18:14:31.101Z,3.00
2023-04-15T18:17:20.800Z,3.67
2023-04-15T18:20:07.879Z,2.87
2023-04-15T18:22:39.533Z,3.13
2023-04-15T18:25:09.231Z,2.80
2023-04-15T18:27:38.875Z,2.80
2023-04-15T18:30:10.624Z,2.90
2023-04-15T18:32:38.265Z,2.43
2023-04-15T18:35:06.504Z,3.53
2023-04-15T18:37:33.331Z,3.80
2023-04-15T18:40:00.193Z,2.77
2023-04-15T18:42:27.223Z,3.13
2023-04-15T18:44:54.032Z,3.50
2023-04-15T18:47:20.966Z,3.30
2023-04-15T18:49:47.667Z,4.97
2023-04-15T18:52:14.300Z,3.67
2023-04-15T18:54:40.954Z,3.47
2023-04-15T18:57:07.629Z,3.00
2023-04-15T18:59:34.670Z,3.47
2023-04-15T19:02:03.505Z,3.97
2023-04-15T19:04:30.403Z,4.13
2023-04-15T19:06:58.716Z,4.70
2023-04-15T19:09:25.893Z,4.23
2023-04-15T19:11:52.558Z,4.37
2023-04-15T19:14:19.204Z,3.40
2023-04-15T19:16:45.991Z,4.03
2023-04-15T19:19:14.654Z,3.27
2023-04-15T19:21:41.513Z,3.03
2023-04-15T19:24:08.205Z,3.93
2023-04-15T19:26:36.633Z,3.37
2023-04-15T19:29:03.666Z,3.30
2023-04-15T19:31:30.766Z,3.67
2023-04-15T19:33:57.490Z,6.77
2023-04-15T19:36:24.240Z,3.50
2023-04-15T19:38:50.992Z,3.93
2023-04-15T19:41:17.642Z,6.83
2023-04-15T19:43:44.278Z,4.00
2023-04-15T19:46:13.152Z,4.37
2023-04-15T19:48:39.915Z,4.23
2023-04-15T19:51:06.617Z,4.13
2023-04-15T19:53:33.301Z,4.40
2023-04-15T19:56:00.093Z,5.27
2023-04-15T19:58:26.786Z,5.20
2023-04-15T20:00:53.686Z,5.97
2023-04-15T20:03:20.820Z,5.67
2023-04-15T20:05:47.750Z,4.97
2023-04-15T20:08:14.512Z,4.67
2023-04-15T20:10:41.373Z,4.90
2023-04-15T20:13:07.984Z,5.07
2023-04-15T20:15:34.755Z,5.10
2023-04-15T20:18:01.551Z,5.63
2023-04-15T20:20:28.363Z,5.10
2023-04-15T20:22:55.171Z,4.90
2023-04-15T20:25:21.823Z,6.10
2023-04-15T20:27:48.616Z,7.07
2023-04-15T20:30:15.606Z,5.77
2023-04-15T20:32:42.537Z,5.40
2023-04-15T20:35:09.481Z,5.30
2023-04-15T20:37:37.624Z,5.10
2023-04-15T20:40:04.767Z,5.10
2023-04-15T20:42:34.710Z,5.03
2023-04-15T20:45:02.173Z,5.20
2023-04-15T20:47:31.658Z,6.80
2023-04-15T20:49:58.461Z,4.60
2023-04-15T20:52:25.373Z,5.50
2023-04-15T20:54:52.245Z,6.10
2023-04-15T20:57:20.092Z,4.77
2023-04-15T20:59:46.830Z,5.73
2023-04-15T21:02:13.541Z,6.40
2023-04-15T21:04:40.235Z,5.20
2023-04-15T21:07:06.903Z,5.37
2023-04-15T21:09:33.600Z,5.23
2023-04-15T21:12:02.211Z,5.03
2023-04-15T21:14:29.427Z,4.43
2023-04-15T21:16:59.285Z,5.00
2023-04-15T21:19:25.907Z,5.90
2023-04-15T21:21:52.697Z,5.57
2023-04-15T21:24:19.388Z,4.77
2023-04-15T21:26:45.984Z,5.93
2023-04-15T21:29:12.984Z,4.23
2023-04-15T21:31:40.250Z,5.67
2023-04-15T21:34:06.996Z,4.87
2023-04-15T21:36:33.817Z,5.83
2023-04-15T21:39:00.820Z,4.73
2023-04-15T21:41:27.673Z,5.37
2023-04-15T21:43:54.312Z,5.10
2023-04-15T21:46:25.407Z,5.70
2023-04-15T21:48:59.398Z,5.90
2023-04-15T21:51:26.670Z,3.97
2023-04-15T21:53:53.391Z,4.87
2023-04-15T21:56:22.583Z,4.63
2023-04-15T21:58:49.333Z,4.20
2023-04-15T22:01:16.826Z,6.47
2023-04-15T22:03:43.809Z,4.43
2023-04-15T22:06:11.007Z,4.43
2023-04-15T22:08:44.856Z,4.43
2023-04-15T22:11:26.574Z,4.97
2023-04-15T22:13:54.362Z,4.40
2023-04-15T22:16:21.162Z,5.97
2023-04-15T22:18:48.142Z,7.00
2023-04-15T22:21:14.991Z,4.93
2023-04-15T22:23:41.842Z,4.47
2023-04-15T22:26:08.519Z,6.00
2023-04-15T22:28:35.215Z,4.70
2023-04-15T22:31:02.406Z,4.67
2023-04-15T22:33:29.358Z,4.90
2023-04-15T22:35:57.052Z,5.20
2023-04-15T22:38:24.799Z,4.40
2023-04-15T22:40:53.930Z,4.43
2023-04-15T22:43:20.769Z,4.63
2023-04-15T22:45:52.929Z,4.80
2023-04-15T22:48:19.869Z,4.40
2023-04-15T22:50:46.589Z,5.10
2023-04-15T22:53:15.929Z,4.90
2023-04-15T22:55:49.338Z,6.43
2023-04-15T22:58:18.324Z,5.20
2023-04-15T23:00:45.570Z,5.07
2023-04-15T23:03:12.638Z,5.10
2023-04-15T23:05:41.063Z,6.23
2023-04-15T23:08:08.163Z,5.73
2023-04-15T23:10:34.806Z,4.93
2023-04-15T23:13:01.528Z,4.57
2023-04-15T23:15:28.278Z,6.03
2023-04-15T23:17:54.955Z,5.13
2023-04-15T23:20:21.699Z,4.17
2023-04-15T23:22:48.332Z,4.90
2023-04-15T23:25:15.260Z,7.37
2023-04-15T23:27:41.942Z,5.77
2023-04-15T23:30:08.873Z,5.20
2023-04-15T23:32:35.801Z,6.53
2023-04-15T23:35:02.497Z,6.47
2023-04-15T23:37:31.654Z,5.63
2023-04-15T23:39:58.418Z,5.63
2023-04-15T23:42:25.892Z,5.20
2023-04-15T23:44:52.931Z,5.73
2023-04-15T23:47:19.666Z,5.93
2023-04-15T23:49:46.520Z,6.10
2023-04-15T23:52:13.181Z,6.37
2023-04-15T23:54:39.877Z,6.40
2023-04-15T23:57:06.543Z,8.77
2023-04-15T23:59:33.247Z,6.93
